Terminal Aerodrome Forecast
Issued by NWS Corpus Christi, TX

Home | Current Version | Previous Version | Text Only | Print | Product List | Glossary On
Versions: 1 2 3 4 5 6 7 8 9 10 11 12 13 14 15 16
137
FTUS44 KCRP 241121
TAFVCT
TAF
KVCT 241121Z 2412/2512 06004KT 5SM BR BKN014 BKN028
      TEMPO 2412/2415 4SM -SHRA OVC014
     FM241500 16005KT P6SM VCTS BKN025CB BKN035
      TEMPO 2415/2419 4SM TSRA BKN018CB
     FM241900 12008KT P6SM VCTS BKN030CB BKN150
      TEMPO 2419/2423 3SM TSRA OVC025CB
     FM250100 11006KT P6SM SCT020 BKN150
     FM250700 08004KT 5SM BR VCSH BKN015 BKN150=

USA.gov is the U.S. government's official web portal to all federal, state and local government web resources and services.